createdAt,value
2019-04-03T00:00:20.211Z,69.40
2019-04-03T00:02:49.202Z,69.80
2019-04-03T00:05:18.133Z,70.10
2019-04-03T00:07:47.125Z,70.70
2019-04-03T00:10:16.260Z,71.00
2019-04-03T00:12:45.254Z,71.20
2019-04-03T00:15:14.338Z,71.50
2019-04-03T00:17:45.383Z,71.10
2019-04-03T00:20:14.436Z,71.80
2019-04-03T00:22:45.956Z,71.40
2019-04-03T00:25:14.024Z,71.60
2019-04-03T00:27:43.018Z,71.80
2019-04-03T00:30:12.059Z,71.60
2019-04-03T00:32:40.988Z,72.20
2019-04-03T00:35:10.025Z,72.20
2019-04-03T00:37:39.147Z,72.30
2019-04-03T00:40:08.291Z,73.10
2019-04-03T00:42:37.503Z,73.80
2019-04-03T00:45:06.766Z,72.60
2019-04-03T00:47:35.895Z,73.20
2019-04-03T00:50:06.312Z,73.80
2019-04-03T00:52:35.498Z,73.30
2019-04-03T00:55:05.201Z,73.80
2019-04-03T00:57:36.589Z,74.70
2019-04-03T01:00:08.758Z,74.40
2019-04-03T01:02:37.699Z,73.80
2019-04-03T01:05:06.601Z,74.60
2019-04-03T01:07:35.668Z,75.20
2019-04-03T01:10:05.201Z,75.90
2019-04-03T01:12:34.397Z,76.40
2019-04-03T01:15:04.874Z,76.00
2019-04-03T01:17:34.946Z,75.60
2019-04-03T01:20:06.325Z,75.00
2019-04-03T01:22:37.339Z,73.90
2019-04-03T01:25:08.659Z,73.40
2019-04-03T01:27:37.483Z,73.00
2019-04-03T01:30:06.842Z,73.10
2019-04-03T01:32:35.700Z,72.50
2019-04-03T01:35:05.456Z,76.10
2019-04-03T01:37:34.427Z,75.40
2019-04-03T01:40:04.938Z,75.00
2019-04-03T01:42:34.009Z,75.40
2019-04-03T01:45:03.182Z,72.90
2019-04-03T01:47:32.241Z,73.40
2019-04-03T01:50:01.112Z,73.20
2019-04-03T01:52:31.862Z,72.70
2019-04-03T01:55:03.280Z,72.80
2019-04-03T01:57:31.298Z,72.80
2019-04-03T02:00:00.265Z,73.00
2019-04-03T02:02:29.162Z,72.80
2019-04-03T02:04:58.046Z,74.30
2019-04-03T02:07:27.033Z,75.40
2019-04-03T02:09:55.915Z,74.10
2019-04-03T02:12:24.725Z,76.60
2019-04-03T02:14:53.604Z,76.40
2019-04-03T02:17:24.064Z,77.00
2019-04-03T02:19:56.017Z,75.60
2019-04-03T02:22:23.895Z,75.50
2019-04-03T02:24:52.778Z,73.60
2019-04-03T02:27:21.775Z,73.70
2019-04-03T02:29:50.745Z,73.00
2019-04-03T02:32:23.458Z,74.30
2019-04-03T02:34:50.706Z,75.70
2019-04-03T02:37:19.732Z,76.30
2019-04-03T02:39:49.088Z,76.60
2019-04-03T02:42:18.120Z,76.80
2019-04-03T02:44:48.416Z,76.90
2019-04-03T02:47:17.587Z,78.00
2019-04-03T02:49:46.550Z,78.80
2019-04-03T02:52:15.571Z,75.80
2019-04-03T02:54:44.503Z,74.60
2019-04-03T02:57:16.175Z,74.70
2019-04-03T02:59:44.080Z,74.90
2019-04-03T03:02:13.630Z,75.30
2019-04-03T03:04:42.902Z,76.80
2019-04-03T03:07:12.118Z,75.50
2019-04-03T03:09:43.410Z,76.40
2019-04-03T03:12:11.843Z,77.00
2019-04-03T03:14:40.956Z,77.10
2019-04-03T03:17:10.056Z,76.50
2019-04-03T03:19:39.188Z,76.90
2019-04-03T03:22:08.176Z,77.10
2019-04-03T03:24:37.354Z,77.80
2019-04-03T03:27:09.459Z,76.90
2019-04-03T03:29:37.132Z,77.50
2019-04-03T03:32:14.922Z,76.10
2019-04-03T03:34:50.422Z,75.90
2019-04-03T03:37:11.884Z,76.60
2019-04-03T03:39:38.443Z,76.20
2019-04-03T03:42:07.474Z,77.10
2019-04-03T03:44:36.436Z,76.30
2019-04-03T03:47:05.440Z,76.90
2019-04-03T03:49:34.642Z,76.70
2019-04-03T03:52:05.396Z,76.20
2019-04-03T03:54:34.341Z,77.00
2019-04-03T03:57:04.820Z,77.30
2019-04-03T03:59:34.080Z,77.50
2019-04-03T04:02:05.309Z,77.50
2019-04-03T04:04:34.056Z,77.70
2019-04-03T04:07:04.450Z,77.70
2019-04-03T04:09:33.640Z,78.50
2019-04-03T04:12:06.085Z,79.50
2019-04-03T04:14:33.951Z,78.70
2019-04-03T04:17:03.116Z,78.30
2019-04-03T04:19:32.436Z,77.10
2019-04-03T04:22:01.867Z,76.00
2019-04-03T04:24:30.837Z,78.20
2019-04-03T04:27:00.853Z,77.90
2019-04-03T04:29:30.693Z,76.80
2019-04-03T04:31:59.526Z,78.10
2019-04-03T04:34:28.544Z,79.80
2019-04-03T04:36:57.714Z,78.10
2019-04-03T04:39:28.418Z,77.00
2019-04-03T04:41:57.291Z,74.10
2019-04-03T04:44:26.232Z,74.50
2019-04-03T04:46:55.494Z,75.00
2019-04-03T04:49:24.455Z,75.10
2019-04-03T04:51:56.496Z,75.20
2019-04-03T04:54:24.009Z,75.60
2019-04-03T04:56:53.048Z,75.80
2019-04-03T04:59:21.953Z,77.30
2019-04-03T05:01:50.924Z,77.80
2019-04-03T05:04:20.508Z,77.80
2019-04-03T05:06:49.556Z,79.40
2019-04-03T05:09:18.503Z,78.40
2019-04-03T05:11:47.744Z,80.80
2019-04-03T05:14:19.882Z,79.30
2019-04-03T05:16:48.918Z,80.00
2019-04-03T05:19:19.450Z,79.80
2019-04-03T05:21:48.857Z,80.20
2019-04-03T05:24:17.733Z,80.60
2019-04-03T05:26:46.644Z,80.90
2019-04-03T05:29:15.667Z,80.90
2019-04-03T05:31:44.588Z,79.80
2019-04-03T05:34:14.072Z,78.20
2019-04-03T05:36:43.020Z,77.70
2019-04-03T05:39:11.959Z,77.40
2019-04-03T05:41:40.772Z,77.60
2019-04-03T05:44:09.716Z,77.60
2019-04-03T05:46:38.663Z,76.60
2019-04-03T05:49:10.724Z,77.20
2019-04-03T05:51:38.389Z,77.60
2019-04-03T05:54:07.749Z,76.70
2019-04-03T05:56:37.559Z,79.40
2019-04-03T05:59:06.610Z,77.20
2019-04-03T06:01:35.607Z,77.80
2019-04-03T06:04:04.543Z,78.10
2019-04-03T06:06:33.541Z,78.90
2019-04-03T06:09:04.212Z,80.20
2019-04-03T06:11:33.228Z,79.00
2019-04-03T06:14:02.135Z,80.20
2019-04-03T06:16:31.062Z,80.30
2019-04-03T06:18:59.932Z,79.00
2019-04-03T06:21:28.835Z,79.20
2019-04-03T06:23:57.905Z,76.70
2019-04-03T06:26:26.806Z,76.60
2019-04-03T06:28:55.869Z,76.40
2019-04-03T06:31:26.359Z,76.60
2019-04-03T06:33:55.465Z,77.20
2019-04-03T06:36:24.588Z,77.00
2019-04-03T06:38:54.254Z,76.30
2019-04-03T06:41:24.985Z,76.30
2019-04-03T06:43:54.627Z,76.50
2019-04-03T06:46:23.879Z,76.10
2019-04-03T06:48:55.009Z,76.60
2019-04-03T06:51:23.494Z,76.70
2019-04-03T06:53:52.617Z,77.20
2019-04-03T06:56:21.722Z,77.20
2019-04-03T06:58:50.737Z,77.20
2019-04-03T07:01:20.513Z,77.00
2019-04-03T07:03:50.302Z,77.30
2019-04-03T07:06:21.822Z,77.40
2019-04-03T07:08:50.726Z,76.20
2019-04-03T07:11:24.037Z,76.40
2019-04-03T07:13:54.238Z,76.30
2019-04-03T07:16:23.572Z,75.20
2019-04-03T07:18:52.417Z,75.80
2019-04-03T07:21:22.825Z,75.60
2019-04-03T07:23:51.958Z,74.80
2019-04-03T07:26:20.816Z,75.30
2019-04-03T07:28:49.974Z,74.60
2019-04-03T07:31:18.842Z,74.10
2019-04-03T07:33:47.927Z,73.10
2019-04-03T07:36:16.800Z,72.80
2019-04-03T07:38:45.853Z,72.30
2019-04-03T07:41:15.123Z,72.60
2019-04-03T07:43:44.308Z,71.50
2019-04-03T07:46:13.296Z,69.80
2019-04-03T07:48:42.511Z,70.10
2019-04-03T07:51:12.941Z,70.90
2019-04-03T07:53:42.115Z,70.20
2019-04-03T07:56:11.092Z,71.00
2019-04-03T07:58:40.609Z,71.00
2019-04-03T08:01:10.873Z,70.20
2019-04-03T08:03:40.317Z,69.90
2019-04-03T08:06:09.246Z,70.00
2019-04-03T08:08:38.320Z,69.20
2019-04-03T08:11:07.533Z,68.90
2019-04-03T08:13:38.154Z,68.40
2019-04-03T08:16:07.662Z,67.50
2019-04-03T08:18:36.533Z,66.40
2019-04-03T08:21:05.578Z,62.90
2019-04-03T08:23:37.064Z,61.30
2019-04-03T08:26:05.394Z,60.60
2019-04-03T08:28:34.367Z,60.10
2019-04-03T08:31:03.464Z,59.40
2019-04-03T08:33:33.263Z,59.60
2019-04-03T08:36:07.662Z,58.10
2019-04-03T08:38:36.436Z,54.20
2019-04-03T08:41:05.748Z,53.40
2019-04-03T08:43:34.743Z,53.40
2019-04-03T08:46:03.960Z,53.30
2019-04-03T08:48:32.853Z,53.10
2019-04-03T08:51:02.952Z,52.60
2019-04-03T08:53:32.540Z,52.50
2019-04-03T08:56:01.537Z,52.00
2019-04-03T08:58:30.599Z,51.60
2019-04-03T09:00:59.650Z,50.90
2019-04-03T09:03:28.786Z,51.40
2019-04-03T09:05:57.943Z,52.20
2019-04-03T09:08:27.268Z,51.60
2019-04-03T09:10:56.360Z,51.10
2019-04-03T09:13:25.625Z,50.80
2019-04-03T09:15:54.545Z,50.00
2019-04-03T09:18:23.365Z,50.20
2019-04-03T09:20:52.582Z,48.80
2019-04-03T09:23:24.498Z,49.60
2019-04-03T09:25:52.113Z,48.70
2019-04-03T09:28:20.992Z,48.90
2019-04-03T09:30:50.090Z,46.80
2019-04-03T09:33:19.351Z,48.70
2019-04-03T09:35:48.321Z,49.60
2019-04-03T09:38:17.426Z,49.60
2019-04-03T09:40:48.306Z,48.10
2019-04-03T09:43:17.019Z,47.00
2019-04-03T09:45:45.943Z,45.90
2019-04-03T09:48:15.254Z,47.10
2019-04-03T09:50:46.328Z,49.10
2019-04-03T09:53:15.276Z,48.60
2019-04-03T09:55:44.442Z,47.20
2019-04-03T09:58:13.677Z,48.00
2019-04-03T10:00:43.253Z,47.50
2019-04-03T10:03:12.777Z,47.20
2019-04-03T10:05:42.172Z,48.00
2019-04-03T10:08:11.409Z,48.70
2019-04-03T10:10:40.379Z,47.40
2019-04-03T10:13:09.379Z,49.90
2019-04-03T10:15:38.323Z,50.00
2019-04-03T10:18:09.877Z,50.00
2019-04-03T10:20:38.380Z,49.30
2019-04-03T10:23:07.636Z,47.50
2019-04-03T10:25:37.041Z,47.40
2019-04-03T10:28:06.847Z,45.40
2019-04-03T10:30:35.669Z,45.40
2019-04-03T10:33:04.765Z,45.90
2019-04-03T10:35:33.992Z,47.20
2019-04-03T10:38:03.181Z,46.90
2019-04-03T10:40:32.199Z,47.50
2019-04-03T10:43:04.368Z,47.90
2019-04-03T10:45:31.681Z,47.70
2019-04-03T10:48:00.615Z,48.90
2019-04-03T10:50:29.601Z,47.80
2019-04-03T10:52:58.680Z,47.30
2019-04-03T10:55:28.509Z,45.50
2019-04-03T10:58:01.313Z,45.80
2019-04-03T11:00:29.606Z,46.30
2019-04-03T11:02:58.858Z,46.20
2019-04-03T11:05:27.740Z,45.60
2019-04-03T11:07:56.659Z,43.70
2019-04-03T11:10:25.727Z,43.90
2019-04-03T11:12:54.743Z,43.60
2019-04-03T11:15:23.800Z,42.90
2019-04-03T11:17:52.772Z,44.20
2019-04-03T11:20:21.787Z,44.60
2019-04-03T11:22:51.960Z,43.10
2019-04-03T11:25:21.598Z,44.20
2019-04-03T11:27:50.917Z,43.90
2019-04-03T11:30:24.184Z,43.70
2019-04-03T11:32:50.969Z,42.00
2019-04-03T11:35:21.796Z,42.10
2019-04-03T11:37:50.842Z,39.90
2019-04-03T11:40:19.916Z,41.20
2019-04-03T11:42:48.900Z,40.00
2019-04-03T11:45:18.219Z,40.70
2019-04-03T11:47:47.375Z,43.40
2019-04-03T11:50:16.777Z,43.40
2019-04-03T11:52:45.772Z,39.40
2019-04-03T11:55:14.870Z,41.60
2019-04-03T11:57:44.102Z,40.90
2019-04-03T12:00:15.004Z,40.20
2019-04-03T12:02:44.739Z,41.60
2019-04-03T15:18:54.682Z,46.30
2019-04-03T15:21:24.782Z,47.00
2019-04-03T15:23:54.269Z,46.40
2019-04-03T15:26:23.212Z,47.80
2019-04-03T15:28:52.581Z,47.30
2019-04-03T15:31:24.759Z,50.20
2019-04-03T15:33:55.750Z,53.80
2019-04-03T15:36:24.424Z,56.40
2019-04-03T15:38:58.398Z,59.20
2019-04-03T15:41:28.669Z,60.30
2019-04-03T15:43:57.741Z,60.80
2019-04-03T15:46:28.450Z,61.10
2019-04-03T15:52:26.825Z,62.50
2019-04-03T15:54:55.754Z,62.20
2019-04-03T15:57:24.623Z,64.30
2019-04-03T15:59:53.583Z,66.30
2019-04-03T16:02:22.688Z,66.60
2019-04-03T16:04:51.680Z,67.60
2019-04-03T16:07:20.670Z,67.60
2019-04-03T16:09:50.806Z,67.30
2019-04-03T16:12:20.250Z,68.30
2019-04-03T16:14:51.202Z,68.70
2019-04-03T16:17:20.022Z,69.00
2019-04-03T16:19:48.976Z,68.90
2019-04-03T16:22:18.184Z,68.60
2019-04-03T16:24:47.060Z,68.60
2019-04-03T16:27:16.118Z,68.70
2019-04-03T16:29:45.214Z,68.60
2019-04-03T16:32:14.157Z,68.10
2019-04-03T16:34:43.065Z,68.50
2019-04-03T16:37:11.914Z,68.20
2019-04-03T16:39:40.757Z,68.90
2019-04-03T16:42:09.710Z,69.00
2019-04-03T16:44:38.681Z,68.90
2019-04-03T16:47:07.580Z,68.90
2019-04-03T16:49:36.925Z,68.80
2019-04-03T16:52:06.291Z,69.70
2019-04-03T16:54:35.444Z,69.10
2019-04-03T16:57:04.571Z,68.90
2019-04-03T16:59:35.254Z,68.30
2019-04-03T17:02:04.169Z,66.90
2019-04-03T17:04:35.694Z,68.40
2019-04-03T17:07:04.000Z,68.30
2019-04-03T17:09:37.401Z,68.20
2019-04-03T17:12:03.554Z,68.40
2019-04-03T17:14:32.416Z,69.00
2019-04-03T17:17:01.294Z,69.30
2019-04-03T17:19:30.527Z,69.50
2019-04-03T17:21:59.663Z,69.80
2019-04-03T17:24:40.585Z,70.00
2019-04-03T17:26:59.863Z,69.90
2019-04-03T17:29:29.502Z,70.10
2019-04-03T17:31:58.891Z,71.70
2019-04-03T17:34:27.943Z,72.90
2019-04-03T17:36:56.945Z,73.30
2019-04-03T17:39:25.937Z,73.40
2019-04-03T17:41:54.804Z,74.10
2019-04-03T17:44:23.623Z,74.20
2019-04-03T17:46:52.465Z,74.30
2019-04-03T17:49:21.302Z,73.80
2019-04-03T17:51:50.300Z,74.40
2019-04-03T17:54:19.103Z,74.50
2019-04-03T17:56:47.985Z,73.40
2019-04-03T17:59:18.341Z,73.40
2019-04-03T18:01:47.330Z,74.70
2019-04-03T18:04:16.212Z,75.50
2019-04-03T18:06:46.540Z,75.40
2019-04-03T18:09:15.679Z,75.10
2019-04-03T18:11:46.762Z,76.00
2019-04-03T18:14:15.132Z,76.50
2019-04-03T18:16:44.349Z,76.00
2019-04-03T18:19:13.531Z,76.00
2019-04-03T18:22:01.925Z,76.70
2019-04-03T18:24:30.843Z,77.30
2019-04-03T18:27:02.329Z,77.70
2019-04-03T18:29:30.476Z,78.10
2019-04-03T18:31:59.603Z,78.80
2019-04-03T18:34:28.842Z,79.80
2019-04-03T18:36:57.931Z,80.10
2019-04-03T18:39:27.557Z,80.50
2019-04-03T18:41:56.590Z,80.10
2019-04-03T18:44:26.956Z,80.50
2019-04-03T18:46:56.810Z,80.20
2019-04-03T18:49:25.842Z,80.00
2019-04-03T18:51:54.913Z,80.70
2019-04-03T18:54:24.354Z,80.80
2019-04-03T18:56:53.442Z,82.00
2019-04-03T18:59:25.865Z,82.00
2019-04-03T19:01:54.581Z,82.00
2019-04-03T19:04:23.550Z,82.70
2019-04-03T19:06:52.695Z,84.10
2019-04-03T19:09:22.267Z,83.20
2019-04-03T19:11:51.593Z,82.70
2019-04-03T19:14:27.101Z,83.30
2019-04-03T19:16:54.448Z,83.40
2019-04-03T19:19:23.642Z,83.50
2019-04-03T19:21:54.655Z,82.70
2019-04-03T19:24:41.611Z,82.50
2019-04-03T19:27:10.785Z,82.30
2019-04-03T19:29:39.731Z,81.90
2019-04-03T19:32:11.838Z,82.30
2019-04-03T19:34:39.532Z,83.20
2019-04-03T19:37:12.098Z,82.90
2019-04-03T19:39:41.149Z,82.60
2019-04-03T19:42:10.169Z,82.60
2019-04-03T19:44:41.537Z,82.70
2019-04-03T19:47:10.303Z,81.90
2019-04-03T19:49:40.330Z,81.70
2019-04-03T19:52:09.725Z,82.00
2019-04-03T19:54:38.716Z,82.20
2019-04-03T19:57:07.914Z,82.20
2019-04-03T19:59:36.722Z,82.60
2019-04-03T20:02:05.758Z,81.80
2019-04-03T20:04:34.857Z,82.00
2019-04-03T20:07:04.194Z,82.90
2019-04-03T20:09:33.330Z,83.30
2019-04-03T20:12:02.280Z,82.90
2019-04-03T20:14:31.420Z,83.80
2019-04-03T20:17:00.361Z,83.30
2019-04-03T20:19:29.319Z,83.20
2019-04-03T20:21:58.167Z,83.10
2019-04-03T20:24:44.305Z,83.00
2019-04-03T20:27:14.909Z,84.10
2019-04-03T20:29:44.235Z,84.20
2019-04-03T20:32:13.200Z,84.90
2019-04-03T20:34:44.434Z,84.20
2019-04-03T20:37:12.732Z,84.10
2019-04-03T20:39:41.649Z,83.50
2019-04-03T20:42:10.668Z,83.40
2019-04-03T20:44:39.678Z,83.70
2019-04-03T20:47:08.501Z,83.50
2019-04-03T20:49:37.483Z,85.10
2019-04-03T20:52:06.580Z,83.80
2019-04-03T20:54:35.715Z,83.40
2019-04-03T20:57:04.680Z,83.70
2019-04-03T20:59:33.889Z,83.40
2019-04-03T21:02:02.940Z,82.80
2019-04-03T21:04:31.928Z,82.80
2019-04-03T21:07:01.026Z,83.70
2019-04-03T21:09:30.591Z,83.60
2019-04-03T21:11:59.679Z,84.00
2019-04-03T21:14:28.671Z,83.60
2019-04-03T21:16:57.719Z,82.90
2019-04-03T21:19:26.771Z,83.80
2019-04-03T21:21:55.905Z,83.20
2019-04-03T21:24:42.250Z,83.50
2019-04-03T21:27:11.353Z,82.90
2019-04-03T21:29:40.322Z,83.30
2019-04-03T21:32:10.751Z,82.60
2019-04-03T21:34:42.685Z,82.50
2019-04-03T21:37:13.765Z,82.80
2019-04-03T21:39:43.534Z,83.60
2019-04-03T21:42:12.294Z,83.90
2019-04-03T21:44:41.290Z,82.80
2019-04-03T21:47:11.718Z,83.50
2019-04-03T21:49:41.320Z,83.70
2019-04-03T21:52:10.648Z,83.30
2019-04-03T21:54:39.534Z,83.60
2019-04-03T21:57:08.550Z,83.50
2019-04-03T21:59:37.603Z,83.70
2019-04-03T22:02:06.629Z,82.80
2019-04-03T22:04:35.656Z,84.10
2019-04-03T22:07:04.810Z,83.70
2019-04-03T22:09:33.767Z,83.80
2019-04-03T22:12:05.558Z,83.60
2019-04-03T22:14:33.512Z,84.10
2019-04-03T22:17:02.670Z,84.00
2019-04-03T22:19:31.790Z,83.10
2019-04-03T22:22:01.081Z,83.70
2019-04-03T22:25:13.182Z,84.40
2019-04-03T22:27:42.779Z,84.00
2019-04-03T22:30:12.750Z,84.80
2019-04-03T22:32:41.752Z,84.60
2019-04-03T22:35:10.550Z,84.10
2019-04-03T22:37:39.368Z,84.20
2019-04-03T22:40:10.683Z,83.90
2019-04-03T22:42:38.860Z,84.40
2019-04-03T22:45:07.756Z,84.80
2019-04-03T22:47:36.783Z,85.20
2019-04-03T22:50:06.142Z,85.40
2019-04-03T22:52:39.941Z,85.00
2019-04-03T22:55:09.199Z,85.70
2019-04-03T22:57:38.204Z,84.70
2019-04-03T23:00:08.191Z,84.70
2019-04-03T23:02:37.021Z,84.60
2019-04-03T23:05:06.647Z,84.80
2019-04-03T23:07:35.680Z,85.00
2019-04-03T23:10:06.264Z,85.70
2019-04-03T23:12:35.250Z,85.40
2019-04-03T23:15:08.609Z,85.10
2019-04-03T23:17:36.310Z,85.80
2019-04-03T23:20:05.812Z,86.30
2019-04-03T23:22:34.605Z,85.40
2019-04-03T23:25:57.095Z,85.20
2019-04-03T23:28:25.914Z,86.00
2019-04-03T23:30:54.723Z,86.60
2019-04-03T23:33:23.601Z,85.70
2019-04-03T23:35:52.978Z,86.20
2019-04-03T23:38:22.021Z,85.30
2019-04-03T23:40:50.985Z,87.10
2019-04-03T23:43:20.153Z,87.00
2019-04-03T23:45:49.165Z,87.10
2019-04-03T23:48:18.480Z,86.90
2019-04-03T23:50:47.855Z,86.70
2019-04-03T23:53:16.792Z,86.80
2019-04-03T23:55:45.712Z,85.90
2019-04-03T23:58:14.538Z,85.30
